sensor_id;sensor_type;location;lat;lon;timestamp;temperature;humidity
43561;DHT22;32305;46.410;17.394;2023-05-10T00:02:10;23.00;41.70
43561;DHT22;32305;46.410;17.394;2023-05-10T00:04:38;22.90;41.70
43561;DHT22;32305;46.410;17.394;2023-05-10T00:07:05;23.00;41.80
43561;DHT22;32305;46.410;17.394;2023-05-10T00:09:32;22.90;41.80
43561;DHT22;32305;46.410;17.394;2023-05-10T00:11:59;22.90;41.80
43561;DHT22;32305;46.410;17.394;2023-05-10T00:14:27;22.90;41.80
43561;DHT22;32305;46.410;17.394;2023-05-10T00:16:54;22.90;41.80
43561;DHT22;32305;46.410;17.394;2023-05-10T00:19:21;22.90;41.80
43561;DHT22;32305;46.410;17.394;2023-05-10T00:21:48;22.90;41.90
43561;DHT22;32305;46.410;17.394;2023-05-10T00:24:15;22.90;41.90
43561;DHT22;32305;46.410;17.394;2023-05-10T00:26:43;22.90;42.00
43561;DHT22;32305;46.410;17.394;2023-05-10T00:29:10;22.90;42.00
43561;DHT22;32305;46.410;17.394;2023-05-10T00:31:37;22.90;42.00
43561;DHT22;32305;46.410;17.394;2023-05-10T00:34:04;22.80;42.00
43561;DHT22;32305;46.410;17.394;2023-05-10T00:36:31;22.90;42.10
43561;DHT22;32305;46.410;17.394;2023-05-10T00:38:58;22.90;41.90
43561;DHT22;32305;46.410;17.394;2023-05-10T00:41:26;22.90;41.90
43561;DHT22;32305;46.410;17.394;2023-05-10T00:43:53;22.90;41.80
43561;DHT22;32305;46.410;17.394;2023-05-10T00:46:20;22.90;41.80
43561;DHT22;32305;46.410;17.394;2023-05-10T00:48:49;22.80;41.80
43561;DHT22;32305;46.410;17.394;2023-05-10T00:51:16;22.90;41.80
43561;DHT22;32305;46.410;17.394;2023-05-10T00:53:46;22.90;41.90
43561;DHT22;32305;46.410;17.394;2023-05-10T00:56:15;22.90;41.80
43561;DHT22;32305;46.410;17.394;2023-05-10T00:58:43;22.90;41.80
43561;DHT22;32305;46.410;17.394;2023-05-10T01:01:10;22.80;41.80
43561;DHT22;32305;46.410;17.394;2023-05-10T01:03:39;22.80;41.80
43561;DHT22;32305;46.410;17.394;2023-05-10T01:06:07;22.80;41.80
43561;DHT22;32305;46.410;17.394;2023-05-10T01:08:34;22.80;41.80
43561;DHT22;32305;46.410;17.394;2023-05-10T01:11:02;22.70;41.70
43561;DHT22;32305;46.410;17.394;2023-05-10T01:13:42;22.80;41.80
43561;DHT22;32305;46.410;17.394;2023-05-10T01:16:10;22.80;41.90
43561;DHT22;32305;46.410;17.394;2023-05-10T01:18:40;22.80;41.90
43561;DHT22;32305;46.410;17.394;2023-05-10T01:21:40;22.70;41.80
43561;DHT22;32305;46.410;17.394;2023-05-10T01:24:40;22.70;41.80
43561;DHT22;32305;46.410;17.394;2023-05-10T01:27:33;22.70;41.80
43561;DHT22;32305;46.410;17.394;2023-05-10T01:30:44;22.70;41.80
43561;DHT22;32305;46.410;17.394;2023-05-10T01:33:35;22.70;41.90
43561;DHT22;32305;46.410;17.394;2023-05-10T01:36:30;22.70;41.90
43561;DHT22;32305;46.410;17.394;2023-05-10T01:39:09;22.70;41.80
43561;DHT22;32305;46.410;17.394;2023-05-10T01:42:03;22.70;41.90
43561;DHT22;32305;46.410;17.394;2023-05-10T01:44:57;22.70;41.90
43561;DHT22;32305;46.410;17.394;2023-05-10T01:47:40;22.70;41.90
43561;DHT22;32305;46.410;17.394;2023-05-10T01:50:18;22.70;42.00
43561;DHT22;32305;46.410;17.394;2023-05-10T01:52:51;22.70;42.00
43561;DHT22;32305;46.410;17.394;2023-05-10T01:55:24;22.70;42.00
43561;DHT22;32305;46.410;17.394;2023-05-10T01:58:04;22.70;42.10
43561;DHT22;32305;46.410;17.394;2023-05-10T02:00:33;22.70;42.10
43561;DHT22;32305;46.410;17.394;2023-05-10T02:03:06;22.60;42.10
43561;DHT22;32305;46.410;17.394;2023-05-10T02:05:35;22.60;42.70
43561;DHT22;32305;46.410;17.394;2023-05-10T02:08:06;22.60;42.20
43561;DHT22;32305;46.410;17.394;2023-05-10T02:10:35;22.60;42.20
43561;DHT22;32305;46.410;17.394;2023-05-10T02:13:03;22.60;42.20
43561;DHT22;32305;46.410;17.394;2023-05-10T02:15:31;22.60;42.10
43561;DHT22;32305;46.410;17.394;2023-05-10T02:18:00;22.70;42.10
43561;DHT22;32305;46.410;17.394;2023-05-10T02:20:29;22.70;42.00
43561;DHT22;32305;46.410;17.394;2023-05-10T02:22:58;22.70;42.00
43561;DHT22;32305;46.410;17.394;2023-05-10T02:25:27;22.70;42.00
43561;DHT22;32305;46.410;17.394;2023-05-10T02:27:56;22.70;41.90
43561;DHT22;32305;46.410;17.394;2023-05-10T02:30:24;22.70;41.90
43561;DHT22;32305;46.410;17.394;2023-05-10T02:32:52;22.70;41.90
43561;DHT22;32305;46.410;17.394;2023-05-10T02:35:20;22.70;41.90
43561;DHT22;32305;46.410;17.394;2023-05-10T02:37:50;22.60;41.80
43561;DHT22;32305;46.410;17.394;2023-05-10T02:40:18;22.60;41.80
43561;DHT22;32305;46.410;17.394;2023-05-10T02:42:47;22.60;41.90
43561;DHT22;32305;46.410;17.394;2023-05-10T02:45:19;22.60;41.90
43561;DHT22;32305;46.410;17.394;2023-05-10T02:47:47;22.60;41.90
43561;DHT22;32305;46.410;17.394;2023-05-10T02:50:15;22.60;41.90
43561;DHT22;32305;46.410;17.394;2023-05-10T02:52:47;22.60;41.90
43561;DHT22;32305;46.410;17.394;2023-05-10T02:55:20;22.60;41.90
43561;DHT22;32305;46.410;17.394;2023-05-10T02:57:56;22.60;41.90
43561;DHT22;32305;46.410;17.394;2023-05-10T03:00:24;22.60;41.90
43561;DHT22;32305;46.410;17.394;2023-05-10T03:02:52;22.60;41.90
43561;DHT22;32305;46.410;17.394;2023-05-10T03:05:20;22.60;41.90
43561;DHT22;32305;46.410;17.394;2023-05-10T03:07:47;22.60;41.90
43561;DHT22;32305;46.410;17.394;2023-05-10T03:10:15;22.60;41.90
43561;DHT22;32305;46.410;17.394;2023-05-10T03:13:07;22.60;41.90
43561;DHT22;32305;46.410;17.394;2023-05-10T03:15:55;22.60;41.90
43561;DHT22;32305;46.410;17.394;2023-05-10T03:18:33;22.60;41.90
43561;DHT22;32305;46.410;17.394;2023-05-10T03:21:03;22.60;41.90
43561;DHT22;32305;46.410;17.394;2023-05-10T03:23:41;22.60;41.90
43561;DHT22;32305;46.410;17.394;2023-05-10T03:26:11;22.50;41.90
43561;DHT22;32305;46.410;17.394;2023-05-10T03:28:41;22.60;41.90
43561;DHT22;32305;46.410;17.394;2023-05-10T03:31:09;22.50;41.90
43561;DHT22;32305;46.410;17.394;2023-05-10T03:33:49;22.50;42.00
43561;DHT22;32305;46.410;17.394;2023-05-10T03:36:17;22.50;42.00
43561;DHT22;32305;46.410;17.394;2023-05-10T03:38:44;22.50;42.00
43561;DHT22;32305;46.410;17.394;2023-05-10T03:41:11;22.50;42.00
43561;DHT22;32305;46.410;17.394;2023-05-10T03:43:38;22.50;42.00
43561;DHT22;32305;46.410;17.394;2023-05-10T03:46:06;22.50;42.10
43561;DHT22;32305;46.410;17.394;2023-05-10T03:48:33;22.60;42.10
43561;DHT22;32305;46.410;17.394;2023-05-10T03:51:00;22.50;42.00
43561;DHT22;32305;46.410;17.394;2023-05-10T03:53:28;22.60;42.00
43561;DHT22;32305;46.410;17.394;2023-05-10T03:55:55;22.60;42.00
43561;DHT22;32305;46.410;17.394;2023-05-10T03:58:22;22.60;41.90
43561;DHT22;32305;46.410;17.394;2023-05-10T04:00:50;22.60;41.70
43561;DHT22;32305;46.410;17.394;2023-05-10T04:03:17;22.70;41.70
43561;DHT22;32305;46.410;17.394;2023-05-10T04:05:45;22.70;42.20
43561;DHT22;32305;46.410;17.394;2023-05-10T04:08:12;22.70;41.70
43561;DHT22;32305;46.410;17.394;2023-05-10T04:10:39;22.70;41.70
43561;DHT22;32305;46.410;17.394;2023-05-10T04:13:06;22.70;41.70
43561;DHT22;32305;46.410;17.394;2023-05-10T04:15:33;22.70;41.70
43561;DHT22;32305;46.410;17.394;2023-05-10T04:18:01;22.70;41.60
43561;DHT22;32305;46.410;17.394;2023-05-10T04:20:28;22.70;41.60
43561;DHT22;32305;46.410;17.394;2023-05-10T04:22:55;22.70;41.50
43561;DHT22;32305;46.410;17.394;2023-05-10T04:25:22;22.70;41.50
43561;DHT22;32305;46.410;17.394;2023-05-10T04:27:49;22.80;41.50
43561;DHT22;32305;46.410;17.394;2023-05-10T04:30:16;22.80;41.50
43561;DHT22;32305;46.410;17.394;2023-05-10T04:32:44;22.80;41.40
43561;DHT22;32305;46.410;17.394;2023-05-10T04:35:11;22.80;41.40
43561;DHT22;32305;46.410;17.394;2023-05-10T04:37:38;22.80;41.30
43561;DHT22;32305;46.410;17.394;2023-05-10T04:40:06;22.90;41.20
43561;DHT22;32305;46.410;17.394;2023-05-10T04:42:34;22.80;41.60
43561;DHT22;32305;46.410;17.394;2023-05-10T04:45:01;22.90;41.00
43561;DHT22;32305;46.410;17.394;2023-05-10T04:47:28;22.90;40.90
43561;DHT22;32305;46.410;17.394;2023-05-10T04:49:55;22.90;40.80
43561;DHT22;32305;46.410;17.394;2023-05-10T04:52:22;22.90;40.80
43561;DHT22;32305;46.410;17.394;2023-05-10T04:54:50;22.90;40.70
43561;DHT22;32305;46.410;17.394;2023-05-10T04:57:17;22.90;40.70
43561;DHT22;32305;46.410;17.394;2023-05-10T04:59:44;22.90;40.70
43561;DHT22;32305;46.410;17.394;2023-05-10T05:02:14;22.90;40.70
43561;DHT22;32305;46.410;17.394;2023-05-10T05:04:41;22.90;40.60
43561;DHT22;32305;46.410;17.394;2023-05-10T05:07:08;22.90;40.60
43561;DHT22;32305;46.410;17.394;2023-05-10T05:09:35;23.00;40.70
43561;DHT22;32305;46.410;17.394;2023-05-10T05:12:02;23.00;40.70
43561;DHT22;32305;46.410;17.394;2023-05-10T05:14:29;23.00;40.60
43561;DHT22;32305;46.410;17.394;2023-05-10T05:16:57;23.00;40.60
43561;DHT22;32305;46.410;17.394;2023-05-10T05:19:24;23.00;40.70
43561;DHT22;32305;46.410;17.394;2023-05-10T05:21:51;23.00;40.90
43561;DHT22;32305;46.410;17.394;2023-05-10T05:24:19;23.10;41.10
43561;DHT22;32305;46.410;17.394;2023-05-10T05:26:46;23.10;41.10
43561;DHT22;32305;46.410;17.394;2023-05-10T05:29:14;23.10;41.10
43561;DHT22;32305;46.410;17.394;2023-05-10T05:31:41;23.10;41.10
43561;DHT22;32305;46.410;17.394;2023-05-10T05:34:08;23.20;41.10
43561;DHT22;32305;46.410;17.394;2023-05-10T05:36:36;23.20;41.10
43561;DHT22;32305;46.410;17.394;2023-05-10T05:39:07;23.20;41.10
43561;DHT22;32305;46.410;17.394;2023-05-10T05:41:34;23.30;41.10
43561;DHT22;32305;46.410;17.394;2023-05-10T05:44:02;23.30;41.10
43561;DHT22;32305;46.410;17.394;2023-05-10T05:46:29;23.30;41.00
43561;DHT22;32305;46.410;17.394;2023-05-10T05:48:56;23.40;41.10
43561;DHT22;32305;46.410;17.394;2023-05-10T05:51:23;23.40;41.00
43561;DHT22;32305;46.410;17.394;2023-05-10T05:53:51;23.40;40.90
43561;DHT22;32305;46.410;17.394;2023-05-10T05:56:18;23.40;40.90
43561;DHT22;32305;46.410;17.394;2023-05-10T05:58:51;23.50;40.90
43561;DHT22;32305;46.410;17.394;2023-05-10T06:01:19;23.50;41.00
43561;DHT22;32305;46.410;17.394;2023-05-10T06:03:46;23.50;41.00
43561;DHT22;32305;46.410;17.394;2023-05-10T06:06:15;23.60;41.10
43561;DHT22;32305;46.410;17.394;2023-05-10T06:08:42;23.60;41.20
43561;DHT22;32305;46.410;17.394;2023-05-10T06:11:09;23.60;41.10
43561;DHT22;32305;46.410;17.394;2023-05-10T06:13:37;23.70;41.10
43561;DHT22;32305;46.410;17.394;2023-05-10T06:16:04;23.70;41.00
43561;DHT22;32305;46.410;17.394;2023-05-10T06:18:32;23.70;40.90
43561;DHT22;32305;46.410;17.394;2023-05-10T06:20:59;23.80;40.80
43561;DHT22;32305;46.410;17.394;2023-05-10T06:23:27;23.80;40.70
43561;DHT22;32305;46.410;17.394;2023-05-10T06:25:54;23.90;40.70
43561;DHT22;32305;46.410;17.394;2023-05-10T06:28:21;23.90;40.70
43561;DHT22;32305;46.410;17.394;2023-05-10T06:30:49;23.90;40.80
43561;DHT22;32305;46.410;17.394;2023-05-10T06:33:16;24.00;40.80
43561;DHT22;32305;46.410;17.394;2023-05-10T06:35:43;24.00;41.30
43561;DHT22;32305;46.410;17.394;2023-05-10T06:38:10;24.00;40.60
43561;DHT22;32305;46.410;17.394;2023-05-10T06:40:41;24.10;40.60
43561;DHT22;32305;46.410;17.394;2023-05-10T06:43:10;24.10;40.40
43561;DHT22;32305;46.410;17.394;2023-05-10T06:45:37;24.10;40.40
43561;DHT22;32305;46.410;17.394;2023-05-10T06:48:04;24.20;40.40
43561;DHT22;32305;46.410;17.394;2023-05-10T06:50:32;24.10;40.30
43561;DHT22;32305;46.410;17.394;2023-05-10T06:53:00;24.20;40.40
43561;DHT22;32305;46.410;17.394;2023-05-10T06:55:28;24.20;40.20
43561;DHT22;32305;46.410;17.394;2023-05-10T06:57:56;24.20;40.10
43561;DHT22;32305;46.410;17.394;2023-05-10T07:00:24;24.30;40.10
43561;DHT22;32305;46.410;17.394;2023-05-10T07:02:51;24.30;40.00
43561;DHT22;32305;46.410;17.394;2023-05-10T07:05:18;24.30;40.10
43561;DHT22;32305;46.410;17.394;2023-05-10T07:07:47;24.30;40.10
43561;DHT22;32305;46.410;17.394;2023-05-10T07:10:15;24.30;40.10
43561;DHT22;32305;46.410;17.394;2023-05-10T07:12:42;24.40;40.00
43561;DHT22;32305;46.410;17.394;2023-05-10T07:15:09;24.40;40.00
43561;DHT22;32305;46.410;17.394;2023-05-10T07:17:36;24.40;39.90
43561;DHT22;32305;46.410;17.394;2023-05-10T07:20:04;24.40;40.00
43561;DHT22;32305;46.410;17.394;2023-05-10T07:22:32;24.50;40.00
43561;DHT22;32305;46.410;17.394;2023-05-10T07:24:59;24.50;39.90
43561;DHT22;32305;46.410;17.394;2023-05-10T07:27:26;24.50;39.80
43561;DHT22;32305;46.410;17.394;2023-05-10T07:29:53;24.50;40.30
43561;DHT22;32305;46.410;17.394;2023-05-10T07:32:21;24.50;39.70
43561;DHT22;32305;46.410;17.394;2023-05-10T07:34:49;24.50;39.50
43561;DHT22;32305;46.410;17.394;2023-05-10T07:37:17;24.50;39.40
43561;DHT22;32305;46.410;17.394;2023-05-10T07:39:44;24.60;39.40
43561;DHT22;32305;46.410;17.394;2023-05-10T07:42:11;24.60;39.40
43561;DHT22;32305;46.410;17.394;2023-05-10T07:44:38;24.60;39.90
43561;DHT22;32305;46.410;17.394;2023-05-10T07:47:06;24.60;39.40
43561;DHT22;32305;46.410;17.394;2023-05-10T07:49:33;24.70;39.60
43561;DHT22;32305;46.410;17.394;2023-05-10T07:52:00;24.70;39.60
43561;DHT22;32305;46.410;17.394;2023-05-10T07:54:27;24.70;39.60
43561;DHT22;32305;46.410;17.394;2023-05-10T07:56:54;24.70;39.60
43561;DHT22;32305;46.410;17.394;2023-05-10T07:59:22;24.70;39.60
43561;DHT22;32305;46.410;17.394;2023-05-10T08:01:49;24.70;39.50
43561;DHT22;32305;46.410;17.394;2023-05-10T08:04:16;24.80;39.50
43561;DHT22;32305;46.410;17.394;2023-05-10T08:06:43;24.80;40.00
43561;DHT22;32305;46.410;17.394;2023-05-10T08:09:11;24.80;39.40
43561;DHT22;32305;46.410;17.394;2023-05-10T08:11:39;24.90;39.40
43561;DHT22;32305;46.410;17.394;2023-05-10T08:14:07;24.90;39.40
43561;DHT22;32305;46.410;17.394;2023-05-10T08:16:34;24.90;39.30
43561;DHT22;32305;46.410;17.394;2023-05-10T08:19:01;24.90;39.20
43561;DHT22;32305;46.410;17.394;2023-05-10T08:21:28;24.90;39.00
43561;DHT22;32305;46.410;17.394;2023-05-10T08:23:56;25.00;39.00
43561;DHT22;32305;46.410;17.394;2023-05-10T08:26:24;25.10;39.00
43561;DHT22;32305;46.410;17.394;2023-05-10T08:28:51;25.10;38.90
43561;DHT22;32305;46.410;17.394;2023-05-10T08:31:18;25.10;38.70
43561;DHT22;32305;46.410;17.394;2023-05-10T08:33:46;25.10;38.70
43561;DHT22;32305;46.410;17.394;2023-05-10T08:36:14;25.20;38.70
43561;DHT22;32305;46.410;17.394;2023-05-10T08:38:46;25.20;38.50
43561;DHT22;32305;46.410;17.394;2023-05-10T08:41:16;25.20;38.40
43561;DHT22;32305;46.410;17.394;2023-05-10T08:43:44;25.30;39.10
43561;DHT22;32305;46.410;17.394;2023-05-10T08:46:17;25.30;38.30
43561;DHT22;32305;46.410;17.394;2023-05-10T08:48:46;25.30;38.30
43561;DHT22;32305;46.410;17.394;2023-05-10T08:51:17;25.40;38.20
43561;DHT22;32305;46.410;17.394;2023-05-10T08:53:45;25.40;38.10
43561;DHT22;32305;46.410;17.394;2023-05-10T08:56:13;25.40;38.10
43561;DHT22;32305;46.410;17.394;2023-05-10T08:58:42;25.40;38.10
43561;DHT22;32305;46.410;17.394;2023-05-10T09:01:09;25.40;38.10
43561;DHT22;32305;46.410;17.394;2023-05-10T09:03:38;25.50;38.10
43561;DHT22;32305;46.410;17.394;2023-05-10T09:06:06;25.50;38.10
43561;DHT22;32305;46.410;17.394;2023-05-10T09:08:33;25.50;38.10
43561;DHT22;32305;46.410;17.394;2023-05-10T09:11:01;25.60;38.20
43561;DHT22;32305;46.410;17.394;2023-05-10T09:13:28;25.60;38.20
43561;DHT22;32305;46.410;17.394;2023-05-10T09:15:56;25.60;38.10
43561;DHT22;32305;46.410;17.394;2023-05-10T09:18:32;25.70;38.10
43561;DHT22;32305;46.410;17.394;2023-05-10T09:20:59;25.70;38.00
43561;DHT22;32305;46.410;17.394;2023-05-10T09:23:27;25.70;37.90
43561;DHT22;32305;46.410;17.394;2023-05-10T09:26:04;25.80;37.90
43561;DHT22;32305;46.410;17.394;2023-05-10T09:28:50;25.80;37.70
43561;DHT22;32305;46.410;17.394;2023-05-10T09:31:17;25.90;37.80
43561;DHT22;32305;46.410;17.394;2023-05-10T09:33:45;25.90;37.90
43561;DHT22;32305;46.410;17.394;2023-05-10T09:36:14;25.90;37.90
43561;DHT22;32305;46.410;17.394;2023-05-10T09:38:50;26.00;37.80
43561;DHT22;32305;46.410;17.394;2023-05-10T09:41:20;26.00;37.70
43561;DHT22;32305;46.410;17.394;2023-05-10T09:43:48;26.10;37.80
43561;DHT22;32305;46.410;17.394;2023-05-10T09:46:17;26.10;37.70
43561;DHT22;32305;46.410;17.394;2023-05-10T09:48:46;26.10;37.60
43561;DHT22;32305;46.410;17.394;2023-05-10T09:51:24;26.20;37.40
43561;DHT22;32305;46.410;17.394;2023-05-10T09:54:14;26.20;37.20
43561;DHT22;32305;46.410;17.394;2023-05-10T09:56:42;26.30;37.10
43561;DHT22;32305;46.410;17.394;2023-05-10T09:59:11;26.30;37.20
43561;DHT22;32305;46.410;17.394;2023-05-10T10:01:39;26.30;37.30
43561;DHT22;32305;46.410;17.394;2023-05-10T10:04:09;26.30;37.30
43561;DHT22;32305;46.410;17.394;2023-05-10T10:06:38;26.30;37.20
43561;DHT22;32305;46.410;17.394;2023-05-10T10:09:06;26.30;37.20
43561;DHT22;32305;46.410;17.394;2023-05-10T10:11:38;26.30;37.10
43561;DHT22;32305;46.410;17.394;2023-05-10T10:14:06;26.30;37.20
43561;DHT22;32305;46.410;17.394;2023-05-10T10:16:33;26.30;37.20
43561;DHT22;32305;46.410;17.394;2023-05-10T10:19:00;26.30;37.10
43561;DHT22;32305;46.410;17.394;2023-05-10T10:21:28;26.30;37.10
43561;DHT22;32305;46.410;17.394;2023-05-10T10:23:55;26.20;37.00
43561;DHT22;32305;46.410;17.394;2023-05-10T10:26:23;26.20;37.10
43561;DHT22;32305;46.410;17.394;2023-05-10T10:32:22;26.20;37.00
43561;DHT22;32305;46.410;17.394;2023-05-10T10:34:51;26.30;36.90
43561;DHT22;32305;46.410;17.394;2023-05-10T10:37:19;26.30;36.90
43561;DHT22;32305;46.410;17.394;2023-05-10T10:39:48;26.30;36.90
43561;DHT22;32305;46.410;17.394;2023-05-10T10:42:43;26.30;36.70
43561;DHT22;32305;46.410;17.394;2023-05-10T10:45:14;26.30;36.60
43561;DHT22;32305;46.410;17.394;2023-05-10T10:47:41;26.30;36.50
43561;DHT22;32305;46.410;17.394;2023-05-10T10:50:11;26.30;36.30
43561;DHT22;32305;46.410;17.394;2023-05-10T10:52:40;26.30;36.00
43561;DHT22;32305;46.410;17.394;2023-05-10T10:55:18;26.30;35.40
43561;DHT22;32305;46.410;17.394;2023-05-10T10:57:48;26.30;35.00
43561;DHT22;32305;46.410;17.394;2023-05-10T11:00:23;26.30;35.00
43561;DHT22;32305;46.410;17.394;2023-05-10T11:03:13;26.30;35.10
43561;DHT22;32305;46.410;17.394;2023-05-10T11:05:43;26.30;35.30
43561;DHT22;32305;46.410;17.394;2023-05-10T11:08:14;26.30;35.50
43561;DHT22;32305;46.410;17.394;2023-05-10T11:11:06;26.40;35.30
43561;DHT22;32305;46.410;17.394;2023-05-10T11:13:44;26.40;35.30
43561;DHT22;32305;46.410;17.394;2023-05-10T11:16:20;26.40;35.40
43561;DHT22;32305;46.410;17.394;2023-05-10T11:19:03;26.40;35.60
43561;DHT22;32305;46.410;17.394;2023-05-10T11:21:33;26.50;35.90
43561;DHT22;32305;46.410;17.394;2023-05-10T11:24:01;26.50;36.00
43561;DHT22;32305;46.410;17.394;2023-05-10T11:26:35;26.50;36.00
43561;DHT22;32305;46.410;17.394;2023-05-10T11:29:02;26.60;36.00
43561;DHT22;32305;46.410;17.394;2023-05-10T11:31:32;26.60;36.00
43561;DHT22;32305;46.410;17.394;2023-05-10T11:34:00;26.60;36.10
43561;DHT22;32305;46.410;17.394;2023-05-10T11:36:35;26.60;36.10
43561;DHT22;32305;46.410;17.394;2023-05-10T11:39:03;26.60;35.90
43561;DHT22;32305;46.410;17.394;2023-05-10T11:41:31;26.60;35.80
43561;DHT22;32305;46.410;17.394;2023-05-10T11:43:58;26.60;35.90
43561;DHT22;32305;46.410;17.394;2023-05-10T11:46:27;26.70;35.90
43561;DHT22;32305;46.410;17.394;2023-05-10T11:49:00;26.70;35.70
43561;DHT22;32305;46.410;17.394;2023-05-10T11:51:28;26.70;35.80
43561;DHT22;32305;46.410;17.394;2023-05-10T11:53:56;26.70;35.90
43561;DHT22;32305;46.410;17.394;2023-05-10T11:56:24;26.70;35.80
43561;DHT22;32305;46.410;17.394;2023-05-10T11:58:57;26.80;35.80
43561;DHT22;32305;46.410;17.394;2023-05-10T12:01:26;26.80;35.80
43561;DHT22;32305;46.410;17.394;2023-05-10T12:03:54;26.70;35.70
43561;DHT22;32305;46.410;17.394;2023-05-10T12:06:31;26.80;35.80
43561;DHT22;32305;46.410;17.394;2023-05-10T12:09:01;26.80;35.40
43561;DHT22;32305;46.410;17.394;2023-05-10T12:11:37;26.80;35.00
43561;DHT22;32305;46.410;17.394;2023-05-10T12:14:08;26.80;34.70
43561;DHT22;32305;46.410;17.394;2023-05-10T12:16:36;26.80;34.20
43561;DHT22;32305;46.410;17.394;2023-05-10T12:19:03;26.70;34.20
43561;DHT22;32305;46.410;17.394;2023-05-10T12:21:30;26.80;34.60
43561;DHT22;32305;46.410;17.394;2023-05-10T12:24:04;26.80;34.90
43561;DHT22;32305;46.410;17.394;2023-05-10T12:26:35;26.80;35.00
43561;DHT22;32305;46.410;17.394;2023-05-10T12:29:18;26.80;35.10
43561;DHT22;32305;46.410;17.394;2023-05-10T12:31:54;26.80;35.10
43561;DHT22;32305;46.410;17.394;2023-05-10T12:34:33;26.80;35.20
43561;DHT22;32305;46.410;17.394;2023-05-10T12:37:02;26.80;35.30
43561;DHT22;32305;46.410;17.394;2023-05-10T12:39:41;26.80;35.30
43561;DHT22;32305;46.410;17.394;2023-05-10T12:42:09;26.80;35.30
43561;DHT22;32305;46.410;17.394;2023-05-10T12:44:36;26.80;35.30
43561;DHT22;32305;46.410;17.394;2023-05-10T12:47:03;26.80;35.30
43561;DHT22;32305;46.410;17.394;2023-05-10T12:49:31;26.80;35.40
43561;DHT22;32305;46.410;17.394;2023-05-10T12:51:58;26.80;35.60
43561;DHT22;32305;46.410;17.394;2023-05-10T12:54:28;26.80;35.50
43561;DHT22;32305;46.410;17.394;2023-05-10T12:56:55;26.90;35.50
43561;DHT22;32305;46.410;17.394;2023-05-10T12:59:23;26.90;35.60
43561;DHT22;32305;46.410;17.394;2023-05-10T13:01:50;26.90;35.60
43561;DHT22;32305;46.410;17.394;2023-05-10T13:04:17;26.90;35.50
43561;DHT22;32305;46.410;17.394;2023-05-10T13:06:45;26.90;35.30
43561;DHT22;32305;46.410;17.394;2023-05-10T13:09:13;26.90;35.50
43561;DHT22;32305;46.410;17.394;2023-05-10T13:11:41;26.80;35.60
43561;DHT22;32305;46.410;17.394;2023-05-10T13:14:08;26.80;35.70
43561;DHT22;32305;46.410;17.394;2023-05-10T13:16:35;26.80;35.70
43561;DHT22;32305;46.410;17.394;2023-05-10T13:19:03;26.80;35.80
43561;DHT22;32305;46.410;17.394;2023-05-10T13:21:30;26.80;35.60
43561;DHT22;32305;46.410;17.394;2023-05-10T13:23:57;26.80;35.70
43561;DHT22;32305;46.410;17.394;2023-05-10T13:26:25;26.80;35.80
43561;DHT22;32305;46.410;17.394;2023-05-10T13:28:52;26.80;35.70
43561;DHT22;32305;46.410;17.394;2023-05-10T13:31:19;26.80;35.60
43561;DHT22;32305;46.410;17.394;2023-05-10T13:33:47;26.80;35.60
43561;DHT22;32305;46.410;17.394;2023-05-10T13:36:14;26.80;35.60
43561;DHT22;32305;46.410;17.394;2023-05-10T13:38:41;26.80;35.50
43561;DHT22;32305;46.410;17.394;2023-05-10T13:41:09;26.90;35.60
43561;DHT22;32305;46.410;17.394;2023-05-10T13:43:38;26.80;35.40
43561;DHT22;32305;46.410;17.394;2023-05-10T13:46:05;26.80;35.50
43561;DHT22;32305;46.410;17.394;2023-05-10T13:48:32;26.90;35.50
43561;DHT22;32305;46.410;17.394;2023-05-10T13:51:00;26.80;35.40
43561;DHT22;32305;46.410;17.394;2023-05-10T13:53:28;26.80;35.40
43561;DHT22;32305;46.410;17.394;2023-05-10T13:55:55;26.90;35.50
43561;DHT22;32305;46.410;17.394;2023-05-10T13:58:22;26.90;35.50
43561;DHT22;32305;46.410;17.394;2023-05-10T14:00:50;26.90;35.50
43561;DHT22;32305;46.410;17.394;2023-05-10T14:03:17;26.90;35.40
43561;DHT22;32305;46.410;17.394;2023-05-10T14:05:44;26.90;35.30
43561;DHT22;32305;46.410;17.394;2023-05-10T14:08:12;26.90;35.20
43561;DHT22;32305;46.410;17.394;2023-05-10T14:10:40;26.90;35.30
43561;DHT22;32305;46.410;17.394;2023-05-10T14:13:07;26.90;35.40
43561;DHT22;32305;46.410;17.394;2023-05-10T14:15:34;26.90;35.50
43561;DHT22;32305;46.410;17.394;2023-05-10T14:18:01;26.90;35.50
43561;DHT22;32305;46.410;17.394;2023-05-10T14:20:29;26.90;35.40
43561;DHT22;32305;46.410;17.394;2023-05-10T14:22:59;26.90;35.50
43561;DHT22;32305;46.410;17.394;2023-05-10T14:25:26;26.90;35.60
43561;DHT22;32305;46.410;17.394;2023-05-10T14:27:53;26.90;35.70
43561;DHT22;32305;46.410;17.394;2023-05-10T14:30:21;26.90;35.70
43561;DHT22;32305;46.410;17.394;2023-05-10T14:32:49;26.90;35.70
43561;DHT22;32305;46.410;17.394;2023-05-10T14:35:16;26.90;35.70
43561;DHT22;32305;46.410;17.394;2023-05-10T14:37:45;26.90;35.80
43561;DHT22;32305;46.410;17.394;2023-05-10T14:40:13;26.90;35.90
43561;DHT22;32305;46.410;17.394;2023-05-10T14:42:42;26.90;35.80
43561;DHT22;32305;46.410;17.394;2023-05-10T14:45:10;26.90;35.90
43561;DHT22;32305;46.410;17.394;2023-05-10T14:47:37;26.80;35.80
43561;DHT22;32305;46.410;17.394;2023-05-10T14:50:05;26.80;35.90
43561;DHT22;32305;46.410;17.394;2023-05-10T14:52:32;26.80;36.10
43561;DHT22;32305;46.410;17.394;2023-05-10T14:55:00;26.70;36.10
43561;DHT22;32305;46.410;17.394;2023-05-10T14:57:28;26.70;36.10
43561;DHT22;32305;46.410;17.394;2023-05-10T14:59:56;26.70;36.30
43561;DHT22;32305;46.410;17.394;2023-05-10T15:02:24;26.70;36.50
43561;DHT22;32305;46.410;17.394;2023-05-10T15:04:52;26.70;36.80
43561;DHT22;32305;46.410;17.394;2023-05-10T15:07:20;26.70;37.10
43561;DHT22;32305;46.410;17.394;2023-05-10T15:09:47;26.70;37.40
43561;DHT22;32305;46.410;17.394;2023-05-10T15:12:14;26.70;37.70
43561;DHT22;32305;46.410;17.394;2023-05-10T15:14:41;26.70;38.50
43561;DHT22;32305;46.410;17.394;2023-05-10T15:17:08;26.60;39.00
43561;DHT22;32305;46.410;17.394;2023-05-10T15:19:36;26.60;39.10
43561;DHT22;32305;46.410;17.394;2023-05-10T15:22:04;26.60;39.00
43561;DHT22;32305;46.410;17.394;2023-05-10T15:24:32;26.60;38.60
43561;DHT22;32305;46.410;17.394;2023-05-10T15:26:59;26.60;38.50
43561;DHT22;32305;46.410;17.394;2023-05-10T15:29:26;26.70;39.00
43561;DHT22;32305;46.410;17.394;2023-05-10T15:31:54;26.70;39.00
43561;DHT22;32305;46.410;17.394;2023-05-10T15:34:21;26.70;38.70